Local and Regional Airport Weather



KPVE - Beech River Regional Airport
Distance from station: NW 4mi, 6km
Updated: Fri, Apr-26-2019 10:55am CDT
Clear
Clear
 Wind from WNW
Wind: WNW 8 mph , 13 km/h, Gust: 15 mph , 24 km/h
Temperature: 64°F , 18°C
Dew Point: 48°F , 9°C
Humidity: 56%
Barometer: 30.00 inHg , 1015.9 hPa
Clouds: Clear
Visibility: 10 miles , 16 km
2019/04/26 15:55 KPVE 261555Z AUTO 30007G13KT 10SM CLR 18/09 A3000 RMK A01
KSNH - Savannah Hardin Co. Airport
Distance from station: S 34mi, 54km
Updated: Fri, Apr-26-2019 10:55am CDT
Clear
Clear
 Wind from NNW
Wind: NNW 8 mph , 13 km/h
Temperature: 66°F , 19°C
Dew Point: 50°F , 10°C
Humidity: 56%
Barometer: 30.01 inHg , 1016.3 hPa
Clouds: Clear
Visibility: 10 miles , 16 km
2019/04/26 15:55 KSNH 261555Z AUTO 34007KT 10SM CLR 19/10 A3001 RMK A01
 
KMKL - McKellar-Sipes Regional Airport
Distance from station: W 44mi, 72km
Updated: Fri, Apr-26-2019 10:53am CDT
Clear
Clear
 Wind from NW
Wind: NW 13 mph , 20 km/h
Temperature: 64°F , 18°C
Dew Point: 48°F , 9°C
Humidity: 56%
Barometer: 30.04 inHg , 1017.3 hPa
Clouds: Clear
Visibility: 10 miles , 16 km
2019/04/26 15:53 KMKL 261553Z 31011KT 10SM CLR 18/09 A3004 RMK AO2 SLP170 T01780094
KMSL - NW Alabama Regional Airport
Distance from station: SE 78mi, 126km
Updated: Fri, Apr-26-2019 10:53am CDT
Clear
Clear
 Wind from NNW
Wind: NNW 10 mph , 17 km/h
Temperature: 68°F , 20°C
Dew Point: 50°F , 10°C
Humidity: 53%
Barometer: 30.00 inHg , 1015.9 hPa
Clouds: Clear
Visibility: 10 miles , 16 km
2019/04/26 15:53 KMSL 261553Z AUTO 34009KT 10SM CLR 20/10 A3000 RMK AO2 SLP156 T02000100
 
KBNA - Nashville International Airport
Distance from station: NE 97mi, 157km
Updated: Fri, Apr-26-2019 10:53am CDT
Few Clouds
Few Clouds
 Wind from NW
Wind: NW 15 mph , 24 km/h
Temperature: 64°F , 18°C
Dew Point: 46°F , 8°C
Humidity: 52%
Barometer: 29.95 inHg , 1014.2 hPa
Clouds: Few Clouds
Visibility: 10 miles , 16 km
Cloud details: Few Clouds 4600 ft
2019/04/26 15:53 KBNA 261553Z 31013KT 10SM FEW046 18/08 A2995 RMK AO2 SLP137 T01830078
KMEM - Memphis International Airport
Distance from station: W 108mi, 173km
Updated: Fri, Apr-26-2019 10:54am CDT
Clear
Clear
 Wind from NNW
Wind: NNW 8 mph , 13 km/h
Temperature: 66°F , 19°C
Dew Point: 52°F , 11°C
Humidity: 60%
Barometer: 30.07 inHg , 1018.3 hPa
Clouds: Clear
Visibility: 10 miles , 16 km
2019/04/26 15:54 KMEM 261554Z 34007KT 10SM CLR 19/11 A3007 RMK AO2 SLP180 T01940106
 
KTYS - Knoxville McGhee Tyson Airport
Distance from station: E 234mi, 377km
Updated: Fri, Apr-26-2019 10:53am CDT
Light rain, Mostly cloudy
Light rain, Mostly cloudy
 Wind from W
Wind: W 21 mph , 33 km/h, Gust: 35 mph , 56 km/h
Temperature: 63°F , 17°C
Dew Point: 48°F , 9°C
Humidity: 59%
Barometer: 29.80 inHg , 1009.1 hPa
Summary: Light rain
Clouds: Mostly cloudy
Visibility: 10 miles , 16 km
Cloud details: Few Clouds 3000 ft
Partly cloudy 3800 ft
Mostly cloudy 8000 ft
2019/04/26 15:53 KTYS 261553Z 28018G30KT 10SM -RA FEW030 SCT038 BKN080 17/09 A2980 RMK AO2 PK WND 27030/1551 LTG DSNT NE RAB1455B10E12B52 SLP084 P0000 T01720094 $
KSTL - St. Louis International Airport
Distance from station: NW 247mi, 398km
Updated: Fri, Apr-26-2019 10:51am CDT
Clear
Clear
 Wind from NW
Wind: NW 20 mph , 31 km/h, Gust: 33 mph , 54 km/h
Temperature: 61°F , 16°C
Dew Point: 28°F , -2°C
Humidity: 29%
Barometer: 30.02 inHg , 1016.6 hPa
Clouds: Clear
Visibility: 10 miles , 16 km
2019/04/26 15:51 KSTL 261551Z 32017G29KT 10SM CLR 16/M02 A3002 RMK AO2 PK WND 32033/1538 SLP164 T01561017

Refresh Page for latest data.